createdAt,value
2017-12-23T00:00:03.491Z,82.90
2017-12-23T00:00:36.827Z,82.90
2017-12-23T00:01:10.487Z,82.80
2017-12-23T00:01:44.185Z,82.90
2017-12-23T00:02:17.855Z,82.80
2017-12-23T00:02:51.520Z,82.70
2017-12-23T00:03:25.187Z,82.90
2017-12-23T00:03:58.857Z,82.80
2017-12-23T00:04:32.534Z,82.70
2017-12-23T00:05:06.209Z,82.70
2017-12-23T00:05:39.902Z,82.60
2017-12-23T00:06:13.581Z,82.50
2017-12-23T00:06:47.578Z,82.50
2017-12-23T00:07:21.240Z,82.50
2017-12-23T00:07:55.667Z,82.40
2017-12-23T00:08:29.494Z,82.40
2017-12-23T00:09:02.987Z,82.50
2017-12-23T00:09:36.647Z,82.50
2017-12-23T00:10:09.982Z,82.50
2017-12-23T00:10:44.474Z,82.40
2017-12-23T00:11:18.141Z,82.40
2017-12-23T00:11:51.839Z,82.40
2017-12-23T00:12:25.594Z,82.50
2017-12-23T00:12:59.262Z,82.50
2017-12-23T00:13:33.747Z,82.50
2017-12-23T00:14:07.406Z,82.50
2017-12-23T00:14:41.065Z,82.50
2017-12-23T00:15:14.747Z,82.40
2017-12-23T00:15:49.273Z,82.30
2017-12-23T00:16:22.935Z,82.40
2017-12-23T00:16:57.729Z,82.30
2017-12-23T00:17:32.186Z,82.30
2017-12-23T00:18:06.002Z,82.20
2017-12-23T00:18:39.662Z,82.20
2017-12-23T00:19:13.400Z,82.30
2017-12-23T00:19:47.849Z,82.30
2017-12-23T00:20:21.506Z,82.30
2017-12-23T00:20:55.938Z,82.30
2017-12-23T00:21:29.606Z,82.30
2017-12-23T00:22:03.720Z,82.30
2017-12-23T00:22:37.381Z,82.30
2017-12-23T00:23:11.039Z,82.30
2017-12-23T00:23:44.727Z,82.40
2017-12-23T00:24:18.385Z,82.40
2017-12-23T00:24:52.250Z,82.50
2017-12-23T00:25:26.669Z,82.40
2017-12-23T00:26:01.157Z,82.40
2017-12-23T00:26:34.802Z,82.40
2017-12-23T00:27:08.490Z,82.40
2017-12-23T00:27:42.145Z,82.50
2017-12-23T00:28:16.573Z,82.30
2017-12-23T00:28:50.237Z,82.30
2017-12-23T00:29:24.649Z,82.30
2017-12-23T00:29:58.307Z,82.30
2017-12-23T00:30:32.024Z,82.20
2017-12-23T00:31:05.818Z,82.20
2017-12-23T00:31:40.248Z,82.10
2017-12-23T00:32:13.985Z,82.10
2017-12-23T00:32:47.662Z,82.00
2017-12-23T00:33:21.349Z,81.90
2017-12-23T00:33:55.020Z,81.80
2017-12-23T00:34:32.008Z,81.80
2017-12-23T00:35:05.663Z,81.80
2017-12-23T00:35:39.329Z,82.10
2017-12-23T00:36:13.759Z,81.70
2017-12-23T00:36:47.426Z,81.70
2017-12-23T00:37:21.885Z,81.60
2017-12-23T00:37:55.550Z,81.50
2017-12-23T00:38:29.209Z,81.50
2017-12-23T00:39:03.115Z,81.50
2017-12-23T00:39:37.543Z,81.40
2017-12-23T00:40:11.210Z,81.40
2017-12-23T00:40:45.640Z,81.40
2017-12-23T00:41:19.302Z,81.40
2017-12-23T00:41:53.714Z,81.30
2017-12-23T00:42:28.167Z,81.30
2017-12-23T00:43:01.832Z,81.30
2017-12-23T00:43:35.501Z,81.40
2017-12-23T00:44:09.919Z,81.40
2017-12-23T00:44:43.570Z,81.40
2017-12-23T00:45:17.226Z,81.30
2017-12-23T00:45:50.891Z,81.30
2017-12-23T00:46:24.545Z,81.30
2017-12-23T00:46:58.198Z,81.40
2017-12-23T00:47:31.879Z,80.80
2017-12-23T00:48:05.533Z,81.40
2017-12-23T00:48:39.954Z,81.20
2017-12-23T00:49:13.603Z,81.20
2017-12-23T00:49:47.256Z,81.20
2017-12-23T00:50:20.918Z,81.30
2017-12-23T00:50:54.600Z,81.20
2017-12-23T00:51:29.028Z,81.20
2017-12-23T00:52:02.695Z,81.10
2017-12-23T00:52:37.137Z,81.20
2017-12-23T00:53:10.791Z,81.20
2017-12-23T00:53:45.268Z,81.20
2017-12-23T00:54:19.182Z,81.20
2017-12-23T00:54:53.598Z,81.50
2017-12-23T00:55:28.018Z,81.50
2017-12-23T00:56:01.675Z,81.40
2017-12-23T00:56:35.335Z,81.40
2017-12-23T00:57:09.008Z,81.50
2017-12-23T00:57:42.685Z,81.60
2017-12-23T00:58:16.343Z,81.70
2017-12-23T00:58:49.994Z,81.70
2017-12-23T00:59:23.649Z,81.70
2017-12-23T01:00:38.824Z,81.60
2017-12-23T01:01:12.501Z,81.60
2017-12-23T01:01:46.150Z,81.60
2017-12-23T01:02:19.798Z,81.60
2017-12-23T01:02:53.495Z,81.60
2017-12-23T01:03:27.151Z,81.60
2017-12-23T01:04:01.585Z,81.60
2017-12-23T01:04:35.242Z,81.60
2017-12-23T01:05:09.657Z,81.70
2017-12-23T01:05:44.087Z,81.70
2017-12-23T01:06:17.746Z,81.70
2017-12-23T01:06:52.171Z,81.70
2017-12-23T01:07:25.843Z,81.70
2017-12-23T01:08:00.283Z,81.60
2017-12-23T01:08:33.955Z,81.60
2017-12-23T01:09:07.602Z,81.50
2017-12-23T01:09:41.636Z,81.70
2017-12-23T01:10:15.304Z,81.80
2017-12-23T01:10:48.970Z,81.80
2017-12-23T01:11:22.622Z,81.70
2017-12-23T01:11:56.282Z,81.60
2017-12-23T01:12:30.710Z,81.90
2017-12-23T01:13:05.236Z,81.90
2017-12-23T01:13:38.890Z,81.80
2017-12-23T01:14:13.305Z,81.60
2017-12-23T01:14:47.729Z,81.50
2017-12-23T01:15:21.388Z,81.50
2017-12-23T01:15:55.846Z,81.70
2017-12-23T01:16:29.516Z,81.70
2017-12-23T01:17:03.171Z,81.70
2017-12-23T01:17:36.823Z,81.70
2017-12-23T01:18:10.861Z,81.80
2017-12-23T01:18:45.957Z,81.80
2017-12-23T01:19:19.615Z,81.80
2017-12-23T01:19:53.475Z,81.90
2017-12-23T01:20:27.894Z,82.00
2017-12-23T01:21:01.601Z,82.00
2017-12-23T01:21:35.399Z,81.90
2017-12-23T01:22:09.064Z,81.90
2017-12-23T01:22:43.494Z,81.80
2017-12-23T01:23:17.429Z,81.90
2017-12-23T01:23:51.098Z,81.70
2017-12-23T01:24:24.774Z,81.90
2017-12-23T01:24:58.442Z,81.70
2017-12-23T01:25:32.211Z,81.80
2017-12-23T01:26:06.640Z,82.10
2017-12-23T01:26:40.315Z,82.00
2017-12-23T01:27:14.735Z,82.00
2017-12-23T01:27:48.390Z,82.00
2017-12-23T01:28:22.063Z,82.00
2017-12-23T01:28:55.743Z,82.00
2017-12-23T01:29:29.402Z,82.00
2017-12-23T01:30:03.066Z,82.10
2017-12-23T01:30:37.483Z,82.20
2017-12-23T01:31:11.897Z,82.20
2017-12-23T01:31:45.566Z,82.20
2017-12-23T01:32:19.214Z,82.10
2017-12-23T01:32:52.886Z,82.10
2017-12-23T01:33:26.558Z,82.00
2017-12-23T01:34:00.206Z,82.10
2017-12-23T01:34:33.855Z,82.00
2017-12-23T01:35:07.524Z,82.00
2017-12-23T01:35:41.956Z,82.00
2017-12-23T01:36:15.613Z,82.00
2017-12-23T01:36:50.041Z,82.00
2017-12-23T01:37:23.694Z,82.00
2017-12-23T01:37:57.361Z,82.00
2017-12-23T01:38:31.043Z,82.00
2017-12-23T01:39:03.857Z,82.00
2017-12-23T01:39:38.282Z,82.10
2017-12-23T01:40:11.954Z,82.10
2017-12-23T01:40:45.651Z,82.10
2017-12-23T01:41:20.063Z,82.30
2017-12-23T01:41:53.714Z,82.30
2017-12-23T01:42:27.358Z,82.20
2017-12-23T01:43:01.019Z,82.00
2017-12-23T01:43:35.477Z,81.90
2017-12-23T01:44:09.150Z,81.90
2017-12-23T01:44:43.119Z,81.90
2017-12-23T01:45:16.787Z,81.90
2017-12-23T01:45:50.450Z,81.80
2017-12-23T01:46:24.105Z,81.90
2017-12-23T01:46:57.758Z,81.80
2017-12-23T01:47:31.414Z,81.70
2017-12-23T01:48:05.069Z,81.80
2017-12-23T01:48:38.756Z,82.40
2017-12-23T01:49:12.430Z,82.00
2017-12-23T01:49:46.874Z,81.90
2017-12-23T01:50:20.532Z,81.90
2017-12-23T01:50:54.955Z,81.90
2017-12-23T01:51:28.610Z,81.90
2017-12-23T01:52:03.031Z,81.60
2017-12-23T01:52:37.447Z,81.90
2017-12-23T01:53:11.109Z,81.90
2017-12-23T01:53:44.815Z,81.80
2017-12-23T01:54:19.240Z,82.10
2017-12-23T01:54:53.469Z,82.10
2017-12-23T01:55:27.157Z,82.00
2017-12-23T01:56:00.826Z,81.90
2017-12-23T01:56:34.513Z,81.80
2017-12-23T01:57:08.171Z,81.90
2017-12-23T01:57:41.822Z,81.80
2017-12-23T01:58:15.482Z,82.00
2017-12-23T01:58:49.187Z,81.90
2017-12-23T01:59:22.837Z,81.80
2017-12-23T01:59:57.270Z,82.10
2017-12-23T02:00:30.929Z,82.10
2017-12-23T02:01:05.342Z,82.40
2017-12-23T02:01:39.752Z,82.30
2017-12-23T02:02:14.172Z,82.10
2017-12-23T02:02:47.821Z,82.00
2017-12-23T02:03:21.472Z,82.20
2017-12-23T02:03:55.157Z,82.10
2017-12-23T02:04:28.809Z,82.00
2017-12-23T02:05:03.238Z,81.90
2017-12-23T02:05:36.897Z,81.80
2017-12-23T02:06:10.550Z,81.80
2017-12-23T02:06:44.215Z,81.90
2017-12-23T02:07:17.870Z,82.00
2017-12-23T02:07:52.296Z,82.70
2017-12-23T02:08:25.949Z,82.10
2017-12-23T02:08:59.618Z,81.90
2017-12-23T02:09:33.288Z,81.90
2017-12-23T02:10:06.947Z,82.00
2017-12-23T02:10:41.411Z,82.00
2017-12-23T02:11:15.072Z,82.00
2017-12-23T02:11:48.730Z,81.90
2017-12-23T02:12:23.154Z,81.90
2017-12-23T02:12:56.827Z,81.90
2017-12-23T02:13:31.252Z,81.80
2017-12-23T02:14:05.197Z,81.80
2017-12-23T02:14:38.857Z,81.80
2017-12-23T02:15:12.511Z,81.80
2017-12-23T02:15:46.950Z,82.00
2017-12-23T02:16:20.622Z,82.00
2017-12-23T02:16:54.290Z,82.20
2017-12-23T02:17:28.751Z,82.00
2017-12-23T02:18:02.459Z,82.00
2017-12-23T02:18:36.114Z,82.20
2017-12-23T02:19:09.799Z,82.20
2017-12-23T02:19:44.230Z,82.00
2017-12-23T02:20:17.899Z,82.00
2017-12-23T02:20:51.558Z,81.90
2017-12-23T02:21:25.975Z,82.10
2017-12-23T02:21:59.654Z,82.10
2017-12-23T02:22:33.334Z,82.10
2017-12-23T02:23:07.765Z,82.10
2017-12-23T02:23:41.426Z,82.10
2017-12-23T02:24:15.108Z,82.00
2017-12-23T02:24:48.766Z,82.00
2017-12-23T02:25:22.435Z,82.00
2017-12-23T02:25:56.095Z,81.90
2017-12-23T02:26:30.515Z,82.20
2017-12-23T02:27:04.181Z,82.20
2017-12-23T02:27:38.610Z,82.00
2017-12-23T02:28:12.261Z,82.00
2017-12-23T02:28:45.923Z,81.90
2017-12-23T02:29:19.622Z,81.90
2017-12-23T02:29:53.296Z,81.80
2017-12-23T02:30:26.969Z,81.80
2017-12-23T02:31:00.619Z,81.80
2017-12-23T02:31:34.270Z,81.80
2017-12-23T02:32:07.947Z,81.70
2017-12-23T02:32:41.603Z,81.90
2017-12-23T02:33:16.039Z,82.10
2017-12-23T02:33:49.723Z,82.10
2017-12-23T02:34:23.426Z,82.20
2017-12-23T02:34:57.100Z,82.20
2017-12-23T02:35:30.746Z,82.20
2017-12-23T02:36:04.422Z,82.30
2017-12-23T02:36:38.093Z,82.30
2017-12-23T02:37:11.778Z,82.30
2017-12-23T02:37:45.440Z,82.20
2017-12-23T02:38:19.113Z,82.20
2017-12-23T02:38:53.539Z,82.30
2017-12-23T02:39:27.232Z,82.20
2017-12-23T02:40:00.893Z,82.20
2017-12-23T02:40:35.342Z,82.20
2017-12-23T02:41:09.046Z,82.20
2017-12-23T02:41:42.705Z,82.20
2017-12-23T02:42:16.363Z,82.20
2017-12-23T02:42:50.022Z,82.00
2017-12-23T02:43:23.686Z,82.10
2017-12-23T02:43:57.347Z,82.00
2017-12-23T02:44:31.797Z,82.10
2017-12-23T02:45:05.478Z,82.10
2017-12-23T02:45:39.134Z,82.00
2017-12-23T02:46:13.553Z,82.00
2017-12-23T02:46:47.213Z,82.00
2017-12-23T02:47:20.882Z,81.90
2017-12-23T02:47:54.538Z,81.80
2017-12-23T02:48:28.199Z,81.80
2017-12-23T02:49:02.609Z,81.80
2017-12-23T02:49:37.420Z,81.80
2017-12-23T02:50:11.078Z,82.50
2017-12-23T02:50:44.744Z,81.90
2017-12-23T02:51:18.425Z,82.00
2017-12-23T02:51:52.082Z,82.10
2017-12-23T02:52:26.525Z,82.20
2017-12-23T02:53:00.186Z,82.20
2017-12-23T02:53:33.852Z,82.30
2017-12-23T02:54:08.276Z,82.80
2017-12-23T02:54:41.958Z,82.20
2017-12-23T02:55:16.386Z,82.50
2017-12-23T02:55:50.051Z,82.50
2017-12-23T02:56:24.482Z,82.30
2017-12-23T02:56:58.142Z,82.30
2017-12-23T02:57:32.566Z,82.30
2017-12-23T02:58:06.240Z,82.20
2017-12-23T02:58:40.671Z,82.20
2017-12-23T02:59:14.342Z,82.20
2017-12-23T02:59:49.161Z,82.20
2017-12-23T03:00:23.595Z,82.10
2017-12-23T03:00:57.262Z,82.10
2017-12-23T03:01:31.697Z,82.30
2017-12-23T03:02:05.381Z,82.30
2017-12-23T03:02:39.070Z,82.40
2017-12-23T03:03:12.726Z,82.40
2017-12-23T03:03:47.150Z,82.20
2017-12-23T03:04:20.830Z,82.00
2017-12-23T03:04:55.275Z,82.10
2017-12-23T03:05:29.027Z,82.10
2017-12-23T03:06:03.483Z,82.20
2017-12-23T03:06:37.144Z,82.20
2017-12-23T03:07:10.807Z,82.30
2017-12-23T03:07:45.254Z,82.40
2017-12-23T03:08:18.948Z,82.40
2017-12-23T03:08:52.615Z,82.20
2017-12-23T03:09:26.298Z,82.40
2017-12-23T03:10:00.762Z,82.60
2017-12-23T03:10:34.422Z,82.60
2017-12-23T03:11:08.111Z,82.30
2017-12-23T03:11:41.806Z,82.30
2017-12-23T03:12:15.481Z,82.20
2017-12-23T03:12:49.156Z,82.10
2017-12-23T03:13:22.839Z,82.10
2017-12-23T03:13:57.265Z,82.30
2017-12-23T03:14:30.924Z,82.20
2017-12-23T03:15:05.377Z,82.10
2017-12-23T03:15:39.053Z,82.10
2017-12-23T03:16:12.752Z,82.10
2017-12-23T03:16:46.449Z,82.20
2017-12-23T03:17:20.154Z,82.40
2017-12-23T03:17:53.838Z,82.40
2017-12-23T03:18:27.494Z,82.20
2017-12-23T03:19:01.160Z,82.30
2017-12-23T03:19:35.609Z,82.10
2017-12-23T03:20:09.665Z,82.00
2017-12-23T03:20:44.084Z,81.70
2017-12-23T03:21:18.505Z,82.10
2017-12-23T03:21:52.167Z,82.10
2017-12-23T03:22:25.815Z,82.00
2017-12-23T03:22:59.528Z,82.20
2017-12-23T03:23:33.196Z,82.10
2017-12-23T03:24:06.858Z,82.30
2017-12-23T03:24:40.510Z,82.40
2017-12-23T03:25:14.202Z,82.40
2017-12-23T03:25:47.863Z,82.40
2017-12-23T03:26:21.545Z,82.20
2017-12-23T03:26:55.218Z,82.40
2017-12-23T03:27:28.870Z,82.50
2017-12-23T03:28:03.302Z,83.00
2017-12-23T03:28:36.973Z,82.30
2017-12-23T03:29:11.405Z,82.30
2017-12-23T03:29:45.077Z,82.30
2017-12-23T03:30:18.774Z,82.30
2017-12-23T03:30:52.451Z,82.50
2017-12-23T03:31:26.112Z,82.20
2017-12-23T03:31:59.790Z,82.10
2017-12-23T03:32:33.133Z,82.00
2017-12-23T03:33:06.783Z,81.90
2017-12-23T03:33:40.438Z,81.90
2017-12-23T03:34:14.105Z,82.50
2017-12-23T03:34:47.765Z,81.80
2017-12-23T03:35:21.474Z,81.90
2017-12-23T03:35:55.130Z,82.00
2017-12-23T03:36:28.125Z,82.10
2017-12-23T03:37:01.792Z,82.20
2017-12-23T03:37:36.226Z,82.90
2017-12-23T03:38:09.889Z,82.10
2017-12-23T03:38:44.321Z,82.00
2017-12-23T03:39:17.650Z,82.00
2017-12-23T03:39:51.331Z,82.30
2017-12-23T03:40:25.380Z,82.10
2017-12-23T03:40:59.054Z,82.00
2017-12-23T03:41:33.487Z,82.30
2017-12-23T03:42:07.164Z,81.90
2017-12-23T03:42:41.588Z,82.00
2017-12-23T03:43:15.250Z,82.00
2017-12-23T03:43:49.757Z,82.00
2017-12-23T03:44:24.191Z,81.90
2017-12-23T03:44:57.853Z,81.90
2017-12-23T03:45:31.537Z,81.80
2017-12-23T03:46:05.198Z,81.90
2017-12-23T03:46:38.857Z,82.50
2017-12-23T03:47:12.526Z,82.00
2017-12-23T03:47:46.947Z,81.80
2017-12-23T03:48:20.621Z,81.80
2017-12-23T03:48:55.048Z,81.70
2017-12-23T03:49:28.702Z,81.70
2017-12-23T03:50:03.139Z,81.70
2017-12-23T03:50:37.106Z,81.60
2017-12-23T03:51:11.529Z,81.80
2017-12-23T03:51:45.958Z,81.90
2017-12-23T03:52:19.629Z,81.90
2017-12-23T03:52:53.296Z,82.10
2017-12-23T03:53:26.960Z,82.10
2017-12-23T03:54:00.614Z,82.10
2017-12-23T03:54:34.294Z,82.10
2017-12-23T03:55:07.970Z,82.20
2017-12-23T03:55:41.685Z,82.10
2017-12-23T03:56:15.362Z,82.00
2017-12-23T03:56:49.023Z,81.90
2017-12-23T03:57:23.453Z,82.00
2017-12-23T03:57:57.122Z,82.00
2017-12-23T03:58:31.559Z,82.10
2017-12-23T03:59:05.246Z,82.10
2017-12-23T03:59:38.918Z,82.20
2017-12-23T04:00:13.359Z,82.20
2017-12-23T04:00:47.058Z,82.20
2017-12-23T04:01:20.774Z,82.10
2017-12-23T04:01:54.448Z,82.00
2017-12-23T04:02:28.110Z,82.00
2017-12-23T04:03:01.789Z,82.00
2017-12-23T04:03:35.453Z,81.80
2017-12-23T04:04:09.878Z,81.80
2017-12-23T04:04:43.550Z,81.80
2017-12-23T04:05:17.983Z,81.60
2017-12-23T04:05:51.674Z,81.60
2017-12-23T04:06:25.334Z,81.60
2017-12-23T04:06:59.759Z,81.70
2017-12-23T04:07:33.425Z,81.70
2017-12-23T04:08:07.867Z,82.20
2017-12-23T04:08:41.537Z,81.60
2017-12-23T04:09:15.970Z,81.90
2017-12-23T04:09:49.636Z,81.90
2017-12-23T04:10:24.066Z,81.70
2017-12-23T04:10:58.024Z,81.70
2017-12-23T04:11:32.456Z,81.70
2017-12-23T04:12:06.128Z,81.70
2017-12-23T04:12:40.575Z,81.50
2017-12-23T04:13:14.242Z,81.50
2017-12-23T04:13:47.915Z,81.40
2017-12-23T04:14:22.349Z,81.60
2017-12-23T04:14:56.013Z,81.50
2017-12-23T04:15:30.457Z,81.80
2017-12-23T04:16:04.156Z,81.90
2017-12-23T04:16:37.833Z,81.50
2017-12-23T04:17:11.499Z,81.40
2017-12-23T04:17:45.170Z,81.50
2017-12-23T04:18:19.598Z,81.60
2017-12-23T04:18:53.265Z,81.50
2017-12-23T04:19:27.696Z,81.40
2017-12-23T04:20:01.353Z,81.40
2017-12-23T04:20:35.032Z,81.50
2017-12-23T04:21:08.726Z,81.50
2017-12-23T04:21:42.408Z,81.50
2017-12-23T04:22:16.080Z,82.20
2017-12-23T04:22:49.739Z,81.70
2017-12-23T04:23:23.418Z,81.90
2017-12-23T04:23:57.084Z,81.80
2017-12-23T04:24:30.884Z,81.70
2017-12-23T04:25:05.314Z,81.80
2017-12-23T04:25:38.985Z,81.70
2017-12-23T04:26:13.466Z,81.60
2017-12-23T04:26:47.124Z,81.60
2017-12-23T04:27:20.800Z,81.70
2017-12-23T04:27:54.469Z,81.60
2017-12-23T04:28:28.146Z,81.70
2017-12-23T04:29:02.573Z,81.50
2017-12-23T04:29:36.307Z,81.50
2017-12-23T04:30:10.156Z,81.60
2017-12-23T04:30:43.826Z,81.80
2017-12-23T04:31:18.278Z,81.70
2017-12-23T04:31:51.966Z,81.70
2017-12-23T04:32:25.630Z,81.60
2017-12-23T04:32:59.302Z,81.80
2017-12-23T04:33:33.914Z,81.80
2017-12-23T04:34:08.360Z,81.60
2017-12-23T04:34:42.022Z,81.60
2017-12-23T04:35:15.681Z,81.50
2017-12-23T04:35:49.359Z,81.60
2017-12-23T04:36:23.298Z,81.80
2017-12-23T04:36:57.002Z,81.90
2017-12-23T04:37:30.674Z,81.90
2017-12-23T04:38:04.339Z,81.70
2017-12-23T04:38:38.026Z,81.50
2017-12-23T04:39:11.708Z,81.40
2017-12-23T04:39:45.373Z,81.20
2017-12-23T04:40:19.049Z,81.40
2017-12-23T04:40:52.566Z,81.30
2017-12-23T04:41:26.263Z,81.20
2017-12-23T04:41:59.934Z,81.10
2017-12-23T04:42:33.618Z,81.10
2017-12-23T04:43:07.291Z,81.40
2017-12-23T04:43:41.046Z,81.50
2017-12-23T04:44:15.490Z,81.20
2017-12-23T04:44:49.156Z,81.20
2017-12-23T04:45:22.845Z,81.20
2017-12-23T04:45:56.531Z,81.00
2017-12-23T04:46:31.013Z,80.80
2017-12-23T04:47:04.676Z,80.80
2017-12-23T04:47:38.350Z,80.80
2017-12-23T04:48:12.017Z,81.00
2017-12-23T04:48:45.683Z,81.00
2017-12-23T04:49:20.117Z,80.90
2017-12-23T04:49:53.820Z,80.90
2017-12-23T04:50:27.484Z,80.90
2017-12-23T04:51:01.157Z,80.80
2017-12-23T04:51:35.606Z,80.80
2017-12-23T04:52:09.270Z,80.70
2017-12-23T04:52:43.715Z,80.60
2017-12-23T04:53:17.390Z,80.60
2017-12-23T04:53:51.144Z,80.60
2017-12-23T04:54:25.566Z,80.70
2017-12-23T04:54:59.227Z,80.70
2017-12-23T04:55:33.662Z,81.30
2017-12-23T04:56:07.349Z,80.60
2017-12-23T04:56:41.823Z,80.70
2017-12-23T04:57:15.481Z,80.70
2017-12-23T04:57:49.342Z,80.80
2017-12-23T04:58:23.021Z,80.70
2017-12-23T04:58:57.455Z,80.70
2017-12-23T04:59:31.153Z,80.70
2017-12-23T05:00:04.162Z,80.60
2017-12-23T05:00:37.836Z,80.60
2017-12-23T05:01:11.513Z,80.60
2017-12-23T05:01:45.577Z,80.50
2017-12-23T05:02:20.018Z,80.40
2017-12-23T05:02:53.689Z,80.40
2017-12-23T05:03:27.352Z,80.40
2017-12-23T05:04:01.798Z,80.30
2017-12-23T05:04:35.462Z,80.30
2017-12-23T05:05:09.151Z,80.40
2017-12-23T05:05:42.823Z,80.00
2017-12-23T05:06:17.267Z,79.60
2017-12-23T05:06:51.234Z,79.60
2017-12-23T05:07:25.667Z,79.50
2017-12-23T05:07:59.429Z,79.60
2017-12-23T05:08:33.854Z,79.50
2017-12-23T05:09:07.514Z,79.40
2017-12-23T05:09:41.190Z,79.40
2017-12-23T05:10:14.860Z,79.10
2017-12-23T05:10:48.539Z,79.50
2017-12-23T05:11:22.212Z,79.40
2017-12-23T05:11:55.912Z,79.30
2017-12-23T05:12:29.574Z,79.50
2017-12-23T05:13:04.022Z,79.40
2017-12-23T05:13:37.703Z,79.40
2017-12-23T05:14:11.388Z,79.40
2017-12-23T05:14:45.051Z,79.40
2017-12-23T05:15:19.534Z,79.50
2017-12-23T05:15:53.350Z,79.50
2017-12-23T05:16:27.789Z,79.30
2017-12-23T05:17:01.491Z,79.30
2017-12-23T05:17:35.163Z,79.30
2017-12-23T05:18:08.825Z,79.30
2017-12-23T05:18:43.261Z,79.40
2017-12-23T05:19:16.926Z,79.40
2017-12-23T05:19:50.595Z,79.50
2017-12-23T05:20:24.263Z,79.40
2017-12-23T05:20:57.938Z,79.70
2017-12-23T05:21:31.607Z,79.90
2017-12-23T05:22:05.575Z,79.80
2017-12-23T05:22:40.011Z,79.70
2017-12-23T05:23:13.679Z,79.70
2017-12-23T05:23:47.338Z,79.70
2017-12-23T05:24:21.776Z,79.70
2017-12-23T05:24:55.447Z,79.70
2017-12-23T05:25:29.918Z,79.80
2017-12-23T05:26:03.596Z,80.40
2017-12-23T05:26:37.269Z,79.80
2017-12-23T05:27:11.494Z,79.90
2017-12-23T05:27:45.162Z,79.80
2017-12-23T05:28:18.818Z,80.00
2017-12-23T05:28:53.260Z,80.00
2017-12-23T05:29:26.929Z,80.00
2017-12-23T05:30:00.602Z,80.10
2017-12-23T05:30:35.038Z,79.90
2017-12-23T05:31:08.706Z,79.90
2017-12-23T05:31:43.149Z,80.20
2017-12-23T05:32:17.208Z,80.20
2017-12-23T05:32:51.651Z,80.30
2017-12-23T05:33:25.315Z,80.30
2017-12-23T05:33:58.979Z,80.10
2017-12-23T05:34:32.665Z,80.00
2017-12-23T05:35:06.329Z,80.00
2017-12-23T05:35:40.008Z,80.00
2017-12-23T05:36:13.670Z,80.10
2017-12-23T05:36:47.340Z,80.10
2017-12-23T05:37:21.840Z,80.20
2017-12-23T05:37:55.503Z,80.10
2017-12-23T05:38:29.174Z,80.00
2017-12-23T05:39:02.871Z,80.70
2017-12-23T05:39:36.539Z,80.10
2017-12-23T05:40:10.210Z,80.00
2017-12-23T05:40:43.894Z,80.00
2017-12-23T05:41:18.322Z,80.00
2017-12-23T05:41:52.012Z,80.00
2017-12-23T05:42:25.705Z,80.10
2017-12-23T05:42:59.371Z,80.10
2017-12-23T05:43:33.028Z,80.00
2017-12-23T05:44:06.690Z,80.10
2017-12-23T05:44:40.355Z,80.10
2017-12-23T05:45:14.022Z,80.20
2017-12-23T05:45:48.455Z,80.30
2017-12-23T05:46:22.117Z,80.20
2017-12-23T05:46:56.544Z,80.20
2017-12-23T05:47:30.233Z,80.20
2017-12-23T05:48:03.891Z,80.30
2017-12-23T05:48:37.549Z,80.40
2017-12-23T05:49:11.227Z,80.40
2017-12-23T05:49:44.909Z,80.40
2017-12-23T05:50:18.574Z,80.50
2017-12-23T05:50:52.248Z,80.50
2017-12-23T05:51:26.696Z,80.40
2017-12-23T05:52:00.374Z,80.30
2017-12-23T05:52:34.083Z,80.40
2017-12-23T05:53:07.764Z,80.20
2017-12-23T05:53:41.426Z,80.20
2017-12-23T05:54:15.859Z,81.00
2017-12-23T05:54:49.521Z,80.30
2017-12-23T05:55:23.966Z,80.60
2017-12-23T05:55:57.621Z,80.60
2017-12-23T05:56:32.077Z,80.80
2017-12-23T05:57:05.747Z,80.80
2017-12-23T05:57:39.442Z,80.80
2017-12-23T05:58:13.111Z,80.90
2017-12-23T05:58:46.768Z,81.00
2017-12-23T05:59:21.204Z,81.20
2017-12-23T05:59:54.865Z,81.10
2017-12-23T06:00:29.293Z,81.20
2017-12-23T06:01:02.960Z,81.20
2017-12-23T06:01:36.631Z,81.10
2017-12-23T06:02:10.292Z,81.20
2017-12-23T06:02:43.991Z,81.40
2017-12-23T06:03:17.664Z,81.30
2017-12-23T06:03:51.321Z,81.20
2017-12-23T06:04:25.759Z,81.20
2017-12-23T06:04:59.416Z,81.20
2017-12-23T06:05:33.845Z,81.10
2017-12-23T06:06:07.510Z,81.10
2017-12-23T06:06:41.956Z,81.10
2017-12-23T06:07:15.609Z,81.10
2017-12-23T06:07:50.071Z,81.20
2017-12-23T06:08:23.795Z,81.20
2017-12-23T06:08:58.230Z,81.50
2017-12-23T06:09:31.893Z,81.50
2017-12-23T06:10:05.555Z,81.70
2017-12-23T06:10:39.220Z,81.70
2017-12-23T06:11:12.893Z,81.60
2017-12-23T06:11:46.553Z,81.70
2017-12-23T06:12:20.984Z,82.00
2017-12-23T06:12:54.675Z,82.00
2017-12-23T06:13:28.349Z,81.90
2017-12-23T06:14:02.844Z,82.00
2017-12-23T06:14:36.506Z,82.00
2017-12-23T06:15:10.162Z,82.00
2017-12-23T06:15:43.810Z,82.10
2017-12-23T06:16:17.475Z,82.20
2017-12-23T06:16:51.137Z,82.20
2017-12-23T06:17:24.794Z,82.40
2017-12-23T06:17:59.242Z,82.50
2017-12-23T06:18:32.914Z,82.50
2017-12-23T06:19:06.566Z,82.50
2017-12-23T06:19:40.233Z,82.50
2017-12-23T06:20:13.894Z,82.90
2017-12-23T06:20:47.570Z,82.90
2017-12-23T06:21:21.227Z,82.90
2017-12-23T06:21:55.646Z,83.10
2017-12-23T06:22:30.085Z,83.20
2017-12-23T06:23:04.037Z,83.20
2017-12-23T06:23:38.465Z,83.50
2017-12-23T06:24:12.135Z,83.50
2017-12-23T06:24:46.546Z,83.30
2017-12-23T06:25:20.977Z,83.40
2017-12-23T06:25:54.648Z,83.40
2017-12-23T06:26:28.353Z,83.60
2017-12-23T06:27:02.014Z,83.80
2017-12-23T06:27:36.434Z,84.40
2017-12-23T06:28:10.889Z,84.20
2017-12-23T06:28:44.562Z,84.20
2017-12-23T06:29:18.217Z,84.40
2017-12-23T06:29:52.647Z,84.40
2017-12-23T06:30:26.305Z,84.40
2017-12-23T06:31:00.727Z,84.50
2017-12-23T06:31:35.157Z,84.60
2017-12-23T06:32:08.818Z,84.60
2017-12-23T06:32:43.261Z,84.50
2017-12-23T06:33:16.951Z,84.60
2017-12-23T06:33:50.298Z,84.60
2017-12-23T06:34:24.725Z,84.70
2017-12-23T06:34:58.398Z,84.70
2017-12-23T06:35:32.099Z,84.60
2017-12-23T06:36:05.925Z,84.60
2017-12-23T06:36:39.587Z,84.40
2017-12-23T06:37:13.345Z,84.40
2017-12-23T06:37:47.786Z,84.40
2017-12-23T06:38:21.474Z,84.40
2017-12-23T06:38:55.198Z,84.50
2017-12-23T06:39:28.866Z,84.50
2017-12-23T06:40:02.540Z,84.60
2017-12-23T06:40:36.206Z,84.70
2017-12-23T06:41:10.649Z,84.70
2017-12-23T06:41:44.314Z,84.60
2017-12-23T06:42:18.745Z,84.80
2017-12-23T06:42:52.410Z,84.80
2017-12-23T06:43:26.861Z,84.90
2017-12-23T06:44:00.530Z,84.90
2017-12-23T06:44:34.194Z,84.80
2017-12-23T06:45:08.620Z,84.80
2017-12-23T06:45:42.277Z,84.80
2017-12-23T06:46:16.707Z,85.10
2017-12-23T06:46:50.374Z,85.10
2017-12-23T06:47:24.800Z,84.90
2017-12-23T06:47:58.471Z,85.20
2017-12-23T06:48:32.926Z,85.20
2017-12-23T06:49:06.590Z,85.20
2017-12-23T06:49:40.260Z,85.50
2017-12-23T06:50:14.690Z,85.50
2017-12-23T06:50:48.354Z,85.50
2017-12-23T06:51:22.791Z,85.70
2017-12-23T06:51:56.460Z,85.70
2017-12-23T06:52:30.906Z,85.80
2017-12-23T06:53:04.753Z,85.80
2017-12-23T06:53:39.569Z,85.70
2017-12-23T06:54:14.003Z,85.90
2017-12-23T06:54:47.653Z,85.90
2017-12-23T06:55:21.312Z,86.00
2017-12-23T06:55:54.965Z,86.10
2017-12-23T06:56:28.619Z,86.10
2017-12-23T06:57:02.281Z,86.10
2017-12-23T06:57:36.000Z,86.10
2017-12-23T06:58:09.666Z,86.10
2017-12-23T06:58:43.350Z,86.30
2017-12-23T06:59:17.014Z,86.40
2017-12-23T06:59:50.681Z,86.40
2017-12-23T07:00:25.112Z,86.50
2017-12-23T07:00:58.789Z,86.50
2017-12-23T07:01:32.454Z,86.50
2017-12-23T07:02:06.117Z,86.50
2017-12-23T07:02:39.774Z,86.60
2017-12-23T07:03:13.434Z,86.70
2017-12-23T07:03:47.891Z,86.70
2017-12-23T07:04:21.577Z,86.80
2017-12-23T07:04:55.253Z,86.80
2017-12-23T07:05:28.915Z,86.80
2017-12-23T07:06:02.583Z,87.00
2017-12-23T07:06:36.267Z,87.20
2017-12-23T07:07:09.926Z,87.00
2017-12-23T07:07:43.596Z,87.20
2017-12-23T07:08:17.285Z,87.20
2017-12-23T07:08:51.224Z,87.20
2017-12-23T07:09:24.890Z,87.30
2017-12-23T07:09:58.553Z,87.40
2017-12-23T07:10:32.214Z,87.40
2017-12-23T07:11:06.637Z,87.30
2017-12-23T07:11:40.305Z,87.20
2017-12-23T07:12:14.734Z,87.90
2017-12-23T07:12:48.402Z,87.40
2017-12-23T07:13:22.834Z,87.20
2017-12-23T07:13:56.538Z,87.20
2017-12-23T07:14:30.205Z,87.00
2017-12-23T07:15:03.882Z,87.00
2017-12-23T07:15:38.317Z,87.20
2017-12-23T07:16:11.978Z,87.20
2017-12-23T07:16:46.422Z,87.50